createdAt,value
2023-02-13T00:16:58.651Z,18.5
2023-02-13T00:36:58.640Z,18.4
2023-02-13T00:56:58.593Z,18.4
2023-02-13T01:16:58.596Z,18.4
2023-02-13T01:36:58.628Z,18.3
2023-02-13T01:56:58.560Z,18.3
2023-02-13T02:16:58.364Z,18.2
2023-02-13T02:36:58.396Z,18.2
2023-02-13T02:56:58.309Z,18.1
2023-02-13T03:16:58.296Z,18.1
2023-02-13T03:36:58.293Z,18.0
2023-02-13T03:56:58.217Z,18.0
2023-02-13T04:16:58.252Z,18.2
2023-02-13T04:36:58.164Z,18.5
2023-02-13T04:56:58.096Z,18.6
2023-02-13T05:16:58.179Z,18.8
2023-02-13T05:36:58.077Z,19.0
2023-02-13T05:56:58.146Z,19.1
2023-02-13T06:16:58.091Z,19.3
2023-02-13T06:36:58.068Z,19.4
2023-02-13T06:56:58.142Z,19.4
2023-02-13T07:16:58.103Z,19.5
2023-02-13T07:36:58.063Z,19.5
2023-02-13T07:56:57.990Z,19.6
2023-02-13T08:16:58.056Z,19.6
2023-02-13T08:36:58.012Z,19.6
2023-02-13T08:56:57.868Z,19.7
2023-02-13T09:16:57.816Z,19.8
2023-02-13T09:36:57.815Z,19.8
2023-02-13T09:56:57.758Z,19.8
2023-02-13T10:16:57.813Z,19.7
2023-02-13T10:36:57.704Z,19.7
2023-02-13T10:56:57.795Z,19.7
2023-02-13T11:16:57.682Z,19.7
2023-02-13T11:36:57.636Z,19.7
2023-02-13T11:56:57.596Z,19.7
2023-02-13T12:16:57.577Z,19.7
2023-02-13T12:36:57.678Z,19.7
2023-02-13T12:56:57.648Z,19.7
2023-02-13T13:16:57.738Z,19.7
2023-02-13T13:36:57.733Z,19.7
2023-02-13T13:56:57.625Z,19.7
2023-02-13T14:16:57.604Z,19.7
2023-02-13T14:36:57.388Z,19.7
2023-02-13T14:56:57.542Z,19.7
2023-02-13T15:16:57.402Z,19.8
2023-02-13T15:36:57.345Z,19.8
2023-02-13T15:56:57.504Z,19.8
2023-02-13T16:16:57.267Z,19.8
2023-02-13T16:36:57.360Z,19.8
2023-02-13T16:56:57.281Z,19.8
2023-02-13T17:16:57.252Z,19.9
2023-02-13T17:36:57.189Z,20.0
2023-02-13T17:56:57.136Z,20.0
2023-02-13T18:16:57.161Z,20.1
2023-02-13T18:36:57.214Z,20.1
2023-02-13T18:56:57.136Z,20.2
2023-02-13T19:16:57.131Z,20.2
2023-02-13T19:36:57.108Z,20.1
2023-02-13T19:56:57.036Z,19.9
2023-02-13T20:16:56.976Z,19.8
2023-02-13T20:36:57.093Z,19.6
2023-02-13T20:56:57.161Z,19.5
2023-02-13T21:16:56.899Z,19.3
2023-02-13T21:36:56.852Z,19.2
2023-02-13T21:56:56.852Z,19.1
2023-02-13T22:16:56.852Z,18.9
2023-02-13T22:36:56.808Z,18.8
2023-02-13T22:56:56.766Z,18.7
2023-02-13T23:16:56.751Z,18.7
2023-02-13T23:36:56.695Z,18.6
2023-02-13T23:56:56.694Z,18.5
